createdAt,value
2023-05-01T00:01:31.837Z,99379.78
2023-05-01T00:03:58.751Z,99374.88
2023-05-01T00:06:26.218Z,99375.38
2023-05-01T00:08:52.765Z,99361.53
2023-05-01T00:11:19.369Z,99366.66
2023-05-01T00:13:46.054Z,99363.38
2023-05-01T00:16:13.632Z,99364.97
2023-05-01T00:18:40.260Z,99361.16
2023-05-01T00:21:06.839Z,99352.53
2023-05-01T00:23:33.448Z,99354.94
2023-05-01T00:26:00.135Z,99345.69
2023-05-01T00:28:26.750Z,99344.91
2023-05-01T00:30:53.330Z,99346.00
2023-05-01T00:33:19.920Z,99346.00
2023-05-01T00:35:46.822Z,99334.84
2023-05-01T00:38:13.674Z,99341.09
2023-05-01T00:40:44.269Z,99341.09
2023-05-01T00:43:12.143Z,99334.84
2023-05-01T00:45:41.672Z,99333.25
2023-05-01T00:48:09.614Z,99332.47
2023-05-01T00:50:36.625Z,99328.94
2023-05-01T00:53:04.070Z,99334.06
2023-05-01T00:55:31.747Z,99323.53
2023-05-01T00:57:59.279Z,99324.84
2023-05-01T01:00:25.870Z,99317.22
2023-05-01T01:02:52.613Z,99322.63
2023-05-01T01:05:24.658Z,99316.09
2023-05-01T01:08:03.429Z,99313.78
2023-05-01T01:10:47.028Z,99303.19
2023-05-01T01:13:26.710Z,99310.69
2023-05-01T01:16:10.072Z,99302.56
2023-05-01T01:18:48.713Z,99298.75
2023-05-01T01:21:34.782Z,99297.16
2023-05-01T01:24:19.320Z,99298.75
2023-05-01T01:27:19.233Z,99293.94
2023-05-01T01:30:01.145Z,99290.13
2023-05-01T01:33:01.597Z,99292.00
2023-05-01T01:35:31.096Z,99296.53
2023-05-01T01:38:05.138Z,99288.88
2023-05-01T01:40:49.070Z,99290.19
2023-05-01T01:43:18.953Z,99282.84
2023-05-01T01:46:00.491Z,99285.06
2023-05-01T01:48:32.280Z,99278.53
2023-05-01T01:51:01.074Z,99287.50
2023-05-01T01:53:31.141Z,99282.06
2023-05-01T01:56:01.288Z,99280.97
2023-05-01T01:58:31.158Z,99277.44
2023-05-01T02:00:58.856Z,99277.94
2023-05-01T02:03:26.676Z,99278.44
2023-05-01T02:05:56.688Z,99283.88
2023-05-01T02:08:25.332Z,99274.63
2023-05-01T02:11:00.265Z,99269.22
2023-05-01T02:13:29.824Z,99274.63
2023-05-01T02:15:58.794Z,99271.41
2023-05-01T02:18:29.398Z,99271.41
2023-05-01T02:20:58.722Z,99264.38
2023-05-01T02:23:28.092Z,99267.63
2023-05-01T02:25:59.149Z,99273.81
2023-05-01T02:28:29.323Z,99265.50
2023-05-01T02:30:57.430Z,99260.88
2023-05-01T02:33:24.106Z,99257.38
2023-05-01T02:35:50.653Z,99256.59
2023-05-01T02:38:17.497Z,99251.47
2023-05-01T02:40:47.258Z,99256.59
2023-05-01T02:43:18.388Z,99247.34
2023-05-01T02:45:45.892Z,99249.13
2023-05-01T02:48:17.585Z,99248.31
2023-05-01T02:50:45.097Z,99250.41
2023-05-01T02:53:13.419Z,99246.28
2023-05-01T02:55:40.404Z,99244.69
2023-05-01T02:58:07.315Z,99238.16
2023-05-01T03:00:35.244Z,99238.66
2023-05-01T03:05:46.250Z,99235.31
2023-05-01T03:08:12.840Z,99238.84
2023-05-01T03:10:43.244Z,99235.03
2023-05-01T03:13:13.149Z,99233.91
2023-05-01T03:15:39.740Z,99227.38
2023-05-01T03:18:07.101Z,99226.56
2023-05-01T03:20:34.136Z,99230.41
2023-05-01T03:23:01.208Z,99230.88
2023-05-01T03:25:27.748Z,99228.16
2023-05-01T03:27:55.168Z,99212.72
2023-05-01T03:30:22.122Z,99220.53
2023-05-01T03:32:48.728Z,99218.16
2023-05-01T03:35:15.435Z,99225.47
2023-05-01T03:37:42.083Z,99221.16
2023-05-01T03:40:09.188Z,99217.34
2023-05-01T03:42:35.774Z,99219.75
2023-05-01T03:45:02.353Z,99217.81
2023-05-01T03:47:29.878Z,99216.22
2023-05-01T03:49:56.601Z,99221.97
2023-05-01T03:52:23.412Z,99221.16
2023-05-01T03:54:50.039Z,99222.75
2023-05-01T03:57:16.640Z,99227.38
2023-05-01T03:59:43.885Z,99219.06
2023-05-01T04:02:10.695Z,99221.91
2023-05-01T04:04:37.510Z,99230.97
2023-05-01T04:07:04.941Z,99225.88
2023-05-01T04:09:31.534Z,99228.06
2023-05-01T04:11:58.109Z,99231.88
2023-05-01T04:14:24.792Z,99232.69
2023-05-01T04:16:51.453Z,99231.56
2023-05-01T04:19:18.017Z,99224.56
2023-05-01T04:21:44.696Z,99224.06
2023-05-01T04:24:11.282Z,99227.69
2023-05-01T04:26:39.054Z,99227.69
2023-05-01T04:29:05.594Z,99233.13
2023-05-01T04:31:32.145Z,99234.56
2023-05-01T04:33:58.745Z,99235.13
2023-05-01T04:36:25.316Z,99235.97
2023-05-01T04:38:52.159Z,99233.75
2023-05-01T04:41:19.438Z,99229.28
2023-05-01T04:43:45.957Z,99237.81
2023-05-01T04:46:12.549Z,99230.66
2023-05-01T04:48:39.167Z,99233.25
2023-05-01T04:51:05.839Z,99232.00
2023-05-01T04:53:32.366Z,99232.97
2023-05-01T04:55:59.140Z,99228.22
2023-05-01T04:58:25.808Z,99225.69
2023-05-01T05:00:52.396Z,99234.84
2023-05-01T05:03:19.763Z,99234.03
2023-05-01T05:05:48.911Z,99229.50
2023-05-01T05:08:15.452Z,99225.47
2023-05-01T05:10:42.168Z,99222.09
2023-05-01T05:13:10.093Z,99226.41
2023-05-01T05:15:36.646Z,99223.81
2023-05-01T05:18:03.545Z,99223.50
2023-05-01T05:20:30.144Z,99219.66
2023-05-01T05:22:56.807Z,99228.88
2023-05-01T05:25:24.364Z,99233.97
2023-05-01T05:27:50.986Z,99229.28
2023-05-01T05:30:17.637Z,99231.00
2023-05-01T05:32:45.079Z,99229.69
2023-05-01T05:35:11.682Z,99236.53
2023-05-01T05:37:38.364Z,99229.34
2023-05-01T05:40:05.715Z,99235.38
2023-05-01T05:42:32.225Z,99237.59
2023-05-01T05:44:58.821Z,99241.25
2023-05-01T05:47:25.795Z,99236.25
2023-05-01T05:49:52.363Z,99231.31
2023-05-01T05:52:18.947Z,99240.59
2023-05-01T05:54:45.605Z,99232.56
2023-05-01T05:57:12.176Z,99231.25
2023-05-01T05:59:39.072Z,99234.59
2023-05-01T06:02:05.690Z,99235.53
2023-05-01T06:04:32.413Z,99233.28
2023-05-01T06:06:59.128Z,99231.69
2023-05-01T06:09:26.374Z,99226.25
2023-05-01T06:11:52.969Z,99229.44
2023-05-01T06:14:19.883Z,99234.69
2023-05-01T06:16:46.497Z,99233.56
2023-05-01T06:19:13.128Z,99230.47
2023-05-01T06:21:39.672Z,99227.50
2023-05-01T06:24:06.438Z,99234.78
2023-05-01T06:26:33.041Z,99235.13
2023-05-01T06:28:59.633Z,99239.66
2023-05-01T06:31:27.178Z,99235.63
2023-05-01T06:33:53.946Z,99236.91
2023-05-01T06:36:20.642Z,99234.19
2023-05-01T06:38:49.200Z,99238.97
2023-05-01T06:41:16.919Z,99234.34
2023-05-01T06:43:43.532Z,99240.72
2023-05-01T06:46:10.180Z,99240.06
2023-05-01T06:48:36.833Z,99237.03
2023-05-01T06:51:03.479Z,99245.69
2023-05-01T06:53:30.092Z,99248.41
2023-05-01T06:55:56.763Z,99241.63
2023-05-01T06:58:24.330Z,99250.72
2023-05-01T07:00:51.295Z,99251.66
2023-05-01T07:03:18.037Z,99242.38
2023-05-01T07:05:44.692Z,99244.78
2023-05-01T07:08:11.290Z,99237.22
2023-05-01T07:10:39.313Z,99242.47
2023-05-01T07:13:08.312Z,99247.25
2023-05-01T07:15:34.917Z,99247.91
2023-05-01T07:18:03.298Z,99242.56
2023-05-01T07:20:30.552Z,99248.31
2023-05-01T07:22:57.169Z,99240.81
2023-05-01T07:25:25.032Z,99244.97
2023-05-01T07:27:51.573Z,99241.66
2023-05-01T07:30:18.132Z,99242.47
2023-05-01T07:32:45.184Z,99244.84
2023-05-01T07:35:11.840Z,99243.41
2023-05-01T07:37:38.455Z,99239.84
2023-05-01T07:40:05.531Z,99250.03
2023-05-01T07:42:32.115Z,99241.69
2023-05-01T07:44:58.752Z,99243.75
2023-05-01T07:47:25.351Z,99244.53
2023-05-01T07:49:51.890Z,99249.81
2023-05-01T07:52:18.423Z,99243.94
2023-05-01T07:54:49.838Z,99239.09
2023-05-01T07:57:16.584Z,99238.56
2023-05-01T07:59:43.289Z,99239.97
2023-05-01T08:02:10.067Z,99234.50
2023-05-01T08:04:36.810Z,99232.09
2023-05-01T08:07:03.391Z,99238.22
2023-05-01T08:09:29.908Z,99232.25
2023-05-01T08:11:56.474Z,99232.03
2023-05-01T08:14:23.066Z,99226.13
2023-05-01T08:16:54.333Z,99232.50
2023-05-01T08:19:21.289Z,99237.34
2023-05-01T08:21:47.861Z,99243.13
2023-05-01T08:24:14.507Z,99242.47
2023-05-01T08:26:41.178Z,99235.94
2023-05-01T08:29:07.780Z,99236.91
2023-05-01T08:31:37.833Z,99239.34
2023-05-01T08:34:07.574Z,99239.72
2023-05-01T08:36:34.246Z,99229.44
2023-05-01T08:39:00.934Z,99226.84
2023-05-01T08:41:28.985Z,99232.75
2023-05-01T08:43:58.576Z,99226.50
2023-05-01T08:46:57.968Z,99234.09
2023-05-01T08:49:27.410Z,99227.84
2023-05-01T08:51:56.952Z,99235.25
2023-05-01T08:54:24.719Z,99232.06
2023-05-01T08:56:53.550Z,99232.31
2023-05-01T08:59:21.805Z,99222.84
2023-05-01T09:01:48.908Z,99218.97
2023-05-01T09:04:17.379Z,99221.34
2023-05-01T09:06:45.151Z,99219.88
2023-05-01T09:09:12.011Z,99215.03
2023-05-01T09:11:39.048Z,99215.91
2023-05-01T09:14:05.918Z,99213.47
2023-05-01T09:16:32.826Z,99219.03
2023-05-01T09:18:59.647Z,99209.53
2023-05-01T09:21:29.216Z,99208.97
2023-05-01T09:23:56.207Z,99222.66
2023-05-01T09:26:22.751Z,99219.31
2023-05-01T09:28:51.457Z,99222.78
2023-05-01T09:31:29.396Z,99216.69
2023-05-01T09:34:04.367Z,99219.44
2023-05-01T09:36:33.109Z,99222.78
2023-05-01T09:39:04.167Z,99214.66
2023-05-01T09:41:34.130Z,99224.72
2023-05-01T09:44:01.629Z,99206.09
2023-05-01T09:46:28.424Z,99214.84
2023-05-01T09:49:01.657Z,99207.66
2023-05-01T09:51:29.984Z,99216.22
2023-05-01T09:53:57.403Z,99217.38
2023-05-01T09:56:25.947Z,99218.19
2023-05-01T09:58:53.784Z,99213.31
2023-05-01T10:01:40.291Z,99209.47
2023-05-01T10:04:07.363Z,99210.28
2023-05-01T10:06:34.132Z,99206.94
2023-05-01T10:09:00.727Z,99212.16
2023-05-01T10:11:27.937Z,99210.75
2023-05-01T10:14:08.586Z,99205.03
2023-05-01T10:16:37.363Z,99207.94
2023-05-01T10:19:04.956Z,99214.91
2023-05-01T10:21:33.366Z,99208.75
2023-05-01T10:24:03.854Z,99206.19
2023-05-01T10:26:30.408Z,99205.75
2023-05-01T10:28:59.547Z,99208.66
2023-05-01T10:31:29.698Z,99220.38
2023-05-01T10:33:56.884Z,99203.97
2023-05-01T10:36:34.162Z,99206.09
2023-05-01T10:39:00.709Z,99199.72
2023-05-01T10:41:58.054Z,99194.25
2023-05-01T10:44:26.408Z,99198.16
2023-05-01T10:46:53.911Z,99192.72
2023-05-01T10:49:21.517Z,99205.16
2023-05-01T10:51:58.056Z,99212.09
2023-05-01T10:54:26.759Z,99201.66
2023-05-01T10:57:01.406Z,99203.66
2023-05-01T11:00:00.488Z,99191.53
2023-05-01T11:02:27.376Z,99197.91
2023-05-01T11:04:56.412Z,99192.78
2023-05-01T11:07:23.874Z,99194.13
2023-05-01T11:09:55.553Z,99195.84
2023-05-01T11:12:41.082Z,99205.59
2023-05-01T11:15:09.033Z,99190.63
2023-05-01T11:17:41.547Z,99198.41
2023-05-01T11:20:10.116Z,99194.34
2023-05-01T11:22:38.360Z,99201.59
2023-05-01T11:25:18.893Z,99180.06
2023-05-01T11:27:57.324Z,99183.06
2023-05-01T11:30:24.486Z,99182.00
2023-05-01T11:32:52.004Z,99176.53
2023-05-01T11:35:28.620Z,99167.88
2023-05-01T11:37:57.894Z,99179.34
2023-05-01T11:40:29.573Z,99185.63
2023-05-01T11:43:09.198Z,99182.44
2023-05-01T11:45:37.288Z,99181.13
2023-05-01T11:48:05.252Z,99181.97
2023-05-01T11:50:37.837Z,99186.03
2023-05-01T11:53:11.967Z,99192.06
2023-05-01T11:55:40.274Z,99190.47
2023-05-01T11:58:07.464Z,99178.63
2023-05-01T12:00:34.731Z,99180.38
2023-05-01T12:03:03.692Z,99181.25
2023-05-01T12:05:31.834Z,99180.56
2023-05-01T12:08:12.289Z,99187.28
2023-05-01T12:10:42.032Z,99179.88
2023-05-01T12:13:10.913Z,99175.66
2023-05-01T12:15:40.900Z,99179.44
2023-05-01T12:18:08.045Z,99177.28
2023-05-01T12:20:50.303Z,99175.97
2023-05-01T12:23:17.107Z,99180.19
2023-05-01T12:25:44.997Z,99170.72
2023-05-01T12:28:13.148Z,99174.56
2023-05-01T12:30:41.407Z,99173.28
2023-05-01T12:33:13.493Z,99188.41
2023-05-01T12:35:41.444Z,99183.22
2023-05-01T12:38:18.571Z,99181.25
2023-05-01T12:40:58.030Z,99182.69
2023-05-01T12:43:35.950Z,99196.81
2023-05-01T12:46:04.124Z,99181.63
2023-05-01T12:48:34.371Z,99180.47
2023-05-01T12:51:01.361Z,99192.56
2023-05-01T12:53:29.332Z,99188.16
2023-05-01T12:55:57.873Z,99179.50
2023-05-01T12:58:35.148Z,99185.47
2023-05-01T13:01:01.885Z,99184.75
2023-05-01T13:03:30.360Z,99193.25
2023-05-01T13:06:02.243Z,99193.81
2023-05-01T13:08:28.812Z,99189.69
2023-05-01T13:10:57.306Z,99191.06
2023-05-01T13:13:28.289Z,99180.22
2023-05-01T13:16:04.145Z,99197.78
2023-05-01T13:18:32.542Z,99187.06
2023-05-01T13:21:10.101Z,99204.59
2023-05-01T13:23:38.184Z,99205.56
2023-05-01T13:26:07.115Z,99198.34
2023-05-01T13:28:35.683Z,99190.63
2023-05-01T13:31:02.423Z,99195.84
2023-05-01T13:33:31.534Z,99196.34
2023-05-01T13:35:58.269Z,99189.09
2023-05-01T13:38:25.139Z,99188.22
2023-05-01T13:40:51.796Z,99189.72
2023-05-01T13:43:18.346Z,99187.50
2023-05-01T13:45:45.121Z,99187.72
2023-05-01T13:48:12.295Z,99195.66
2023-05-01T13:50:42.365Z,99198.81
2023-05-01T13:53:09.593Z,99181.44
2023-05-01T13:55:39.947Z,99197.53
2023-05-01T13:58:06.532Z,99196.91
2023-05-01T14:00:33.128Z,99180.88
2023-05-01T14:03:00.216Z,99184.16
2023-05-01T14:05:30.623Z,99195.56
2023-05-01T14:07:58.488Z,99188.28
2023-05-01T14:10:30.400Z,99186.69
2023-05-01T14:12:58.642Z,99195.44
2023-05-01T14:15:25.535Z,99188.63
2023-05-01T14:17:53.007Z,99204.78
2023-05-01T14:20:19.933Z,99197.38
2023-05-01T14:22:48.253Z,99188.78
2023-05-01T14:25:23.308Z,99186.63
2023-05-01T14:27:51.209Z,99189.88
2023-05-01T14:30:33.509Z,99192.22
2023-05-01T14:33:07.684Z,99190.50
2023-05-01T14:35:35.416Z,99194.34
2023-05-01T14:38:10.669Z,99185.19
2023-05-01T14:40:40.736Z,99197.53
2023-05-01T14:43:08.178Z,99208.25
2023-05-01T14:45:36.462Z,99201.94
2023-05-01T14:48:03.435Z,99201.72
2023-05-01T14:50:31.365Z,99199.22
2023-05-01T14:53:00.232Z,99201.38
2023-05-01T14:55:29.464Z,99207.63
2023-05-01T14:57:56.821Z,99198.78
2023-05-01T15:00:24.396Z,99209.97
2023-05-01T15:02:51.466Z,99202.41
2023-05-01T15:19:01.504Z,99227.78
2023-05-01T15:21:28.065Z,99227.88
2023-05-01T15:23:54.750Z,99231.72
2023-05-01T15:57:56.112Z,99272.81
2023-05-01T16:00:22.707Z,99272.25
2023-05-01T16:02:49.298Z,99277.16
2023-05-01T16:05:21.430Z,99283.41
2023-05-01T16:07:59.909Z,99292.25
2023-05-01T16:10:26.467Z,99300.00
2023-05-01T16:26:42.055Z,99306.31
2023-05-01T16:29:08.714Z,99302.16
2023-05-01T16:31:39.217Z,99299.44
2023-05-01T16:34:07.198Z,99307.25
2023-05-01T16:36:42.553Z,99296.72
2023-05-01T16:39:14.421Z,99298.72
2023-05-01T16:41:47.897Z,99294.25
2023-05-01T16:44:16.255Z,99301.63
2023-05-01T16:46:48.245Z,99306.38
2023-05-01T16:49:15.648Z,99313.13
2023-05-01T16:51:42.737Z,99314.81
2023-05-01T16:54:09.486Z,99312.06
2023-05-01T16:56:36.101Z,99315.41
2023-05-01T16:59:02.658Z,99312.59
2023-05-01T17:01:29.308Z,99311.03
2023-05-01T17:03:56.057Z,99317.41
2023-05-01T17:06:22.721Z,99314.41
2023-05-01T17:08:49.574Z,99307.53
2023-05-01T17:11:16.169Z,99313.41
2023-05-01T17:13:42.757Z,99310.41
2023-05-01T17:16:09.585Z,99314.56
2023-05-01T17:18:36.610Z,99317.63
2023-05-01T17:21:03.300Z,99321.16
2023-05-01T17:23:29.869Z,99321.88
2023-05-01T17:25:56.772Z,99323.03
2023-05-01T17:28:24.285Z,99328.50
2023-05-01T17:30:50.810Z,99327.69
2023-05-01T17:33:17.403Z,99329.06
2023-05-01T17:35:44.648Z,99332.06
2023-05-01T17:38:11.161Z,99331.06
2023-05-01T17:40:37.733Z,99340.06
2023-05-01T17:43:04.347Z,99337.25
2023-05-01T17:45:30.966Z,99347.84
2023-05-01T17:47:58.332Z,99343.66
2023-05-01T17:50:24.970Z,99347.88
2023-05-01T17:52:51.538Z,99352.31
2023-05-01T17:55:18.652Z,99357.19
2023-05-01T17:57:45.915Z,99358.09
2023-05-01T18:00:13.276Z,99361.41
2023-05-01T18:02:40.015Z,99364.88
2023-05-01T18:05:07.144Z,99359.19
2023-05-01T18:07:33.699Z,99363.16
2023-05-01T18:10:00.799Z,99358.44
2023-05-01T18:12:27.995Z,99367.72
2023-05-01T18:14:54.546Z,99369.16
2023-05-01T18:17:22.607Z,99374.22
2023-05-01T18:19:50.047Z,99376.56
2023-05-01T18:22:17.281Z,99371.13
2023-05-01T18:24:43.823Z,99381.44
2023-05-01T18:27:10.387Z,99380.50
2023-05-01T18:29:37.263Z,99383.44
2023-05-01T18:32:04.376Z,99388.44
2023-05-01T18:34:31.004Z,99389.94
2023-05-01T18:36:57.585Z,99391.94
2023-05-01T18:39:24.204Z,99398.09
2023-05-01T18:41:51.273Z,99398.81
2023-05-01T18:44:18.120Z,99403.47
2023-05-01T18:46:45.108Z,99405.44
2023-05-01T18:49:11.896Z,99412.88
2023-05-01T18:51:38.857Z,99415.16
2023-05-01T18:54:07.642Z,99422.38
2023-05-01T18:56:34.560Z,99412.94
2023-05-01T18:59:01.231Z,99413.78
2023-05-01T19:01:27.901Z,99426.56
2023-05-01T19:03:58.936Z,99427.72
2023-05-01T19:06:26.508Z,99435.91
2023-05-01T19:08:53.647Z,99432.38
2023-05-01T19:11:21.530Z,99446.78
2023-05-01T19:13:48.696Z,99441.00
2023-05-01T19:16:15.357Z,99445.00
2023-05-01T19:18:41.943Z,99447.06
2023-05-01T19:21:08.492Z,99442.63
2023-05-01T19:23:37.356Z,99454.13
2023-05-01T19:26:06.179Z,99456.97
2023-05-01T19:28:32.733Z,99463.03
2023-05-01T19:30:59.301Z,99466.72
2023-05-01T19:33:25.846Z,99465.91
2023-05-01T19:35:52.427Z,99466.38
2023-05-01T19:38:18.996Z,99466.03
2023-05-01T19:40:45.691Z,99468.28
2023-05-01T19:43:13.503Z,99471.94
2023-05-01T19:45:40.199Z,99480.72
2023-05-01T19:48:06.966Z,99481.66
2023-05-01T19:50:33.634Z,99490.13
2023-05-01T19:53:00.186Z,99485.44
2023-05-01T19:55:26.744Z,99494.88
2023-05-01T19:57:53.420Z,99499.97
2023-05-01T20:00:20.234Z,99504.41
2023-05-01T20:02:47.603Z,99512.09
2023-05-01T20:05:14.520Z,99507.88
2023-05-01T20:07:41.323Z,99514.56
2023-05-01T20:10:09.687Z,99507.66
2023-05-01T20:12:37.062Z,99516.44
2023-05-01T20:15:04.447Z,99515.44
2023-05-01T20:17:31.132Z,99525.00
2023-05-01T20:19:57.923Z,99520.50
2023-05-01T20:22:24.779Z,99535.81
2023-05-01T20:24:51.347Z,99537.69
2023-05-01T20:27:17.878Z,99542.09
2023-05-01T20:29:44.531Z,99538.88
2023-05-01T20:32:11.509Z,99548.94
2023-05-01T20:34:38.082Z,99556.59
2023-05-01T20:37:04.639Z,99556.38
2023-05-01T20:39:31.242Z,99564.66
2023-05-01T20:41:59.232Z,99563.66
2023-05-01T20:44:25.759Z,99556.09
2023-05-01T20:46:52.746Z,99565.69
2023-05-01T20:49:20.581Z,99573.94
2023-05-01T20:51:47.551Z,99566.72
2023-05-01T20:54:14.106Z,99564.50
2023-05-01T20:56:40.622Z,99578.88
2023-05-01T20:59:07.372Z,99571.31
2023-05-01T21:01:34.056Z,99583.00
2023-05-01T21:04:00.957Z,99579.78
2023-05-01T21:06:31.597Z,99587.44
2023-05-01T21:08:59.655Z,99585.81
2023-05-01T21:11:26.582Z,99593.47
2023-05-01T21:13:53.148Z,99595.66
2023-05-01T21:16:19.933Z,99588.63
2023-05-01T21:18:46.749Z,99590.84
2023-05-01T21:21:13.905Z,99596.38
2023-05-01T21:23:47.065Z,99594.06
2023-05-01T21:26:15.407Z,99598.22
2023-05-01T21:28:43.571Z,99589.56
2023-05-01T21:31:14.634Z,99595.59
2023-05-01T21:33:45.786Z,99608.13
2023-05-01T21:36:13.962Z,99601.13
2023-05-01T21:38:40.488Z,99611.66
2023-05-01T21:41:07.075Z,99601.94
2023-05-01T21:43:34.522Z,99599.50
2023-05-01T21:46:01.088Z,99614.50
2023-05-01T21:48:32.843Z,99614.00
2023-05-01T21:51:00.642Z,99616.69
2023-05-01T21:53:28.549Z,99622.41
2023-05-01T21:55:55.260Z,99619.19
2023-05-01T21:58:21.816Z,99625.72
2023-05-01T22:00:48.638Z,99630.66
2023-05-01T22:03:18.119Z,99630.16
2023-05-01T22:05:45.530Z,99633.47
2023-05-01T22:08:12.334Z,99625.41
2023-05-01T22:10:40.710Z,99629.53
2023-05-01T22:13:07.293Z,99628.22
2023-05-01T22:15:34.114Z,99632.66
2023-05-01T22:18:00.830Z,99630.53
2023-05-01T22:20:27.384Z,99634.63
2023-05-01T22:22:53.905Z,99637.13
2023-05-01T22:25:20.739Z,99632.31
2023-05-01T22:27:47.229Z,99639.44
2023-05-01T22:30:13.726Z,99642.75
2023-05-01T22:32:40.308Z,99647.38
2023-05-01T22:35:08.469Z,99647.66
2023-05-01T22:37:35.090Z,99645.56
2023-05-01T22:40:01.923Z,99645.03
2023-05-01T22:42:28.677Z,99641.81
2023-05-01T22:44:55.241Z,99648.59
2023-05-01T22:47:21.785Z,99651.91
2023-05-01T22:49:48.294Z,99652.69
2023-05-01T22:52:15.481Z,99646.78
2023-05-01T22:54:41.990Z,99650.09
2023-05-01T22:57:08.603Z,99659.81
2023-05-01T22:59:35.274Z,99659.31
2023-05-01T23:02:04.107Z,99659.63
2023-05-01T23:04:32.350Z,99659.91
2023-05-01T23:06:59.020Z,99658.59
2023-05-01T23:09:25.589Z,99674.63
2023-05-01T23:11:52.174Z,99672.03
2023-05-01T23:14:18.778Z,99672.59
2023-05-01T23:16:45.329Z,99669.38
2023-05-01T23:19:19.379Z,99668.06
2023-05-01T23:21:46.334Z,99673.50
2023-05-01T23:24:16.234Z,99677.06
2023-05-01T23:26:42.837Z,99675.97
2023-05-01T23:29:09.432Z,99676.78
2023-05-01T23:31:36.246Z,99674.97
2023-05-01T23:34:02.948Z,99680.38
2023-05-01T23:36:29.494Z,99677.66
2023-05-01T23:38:56.082Z,99673.84
2023-05-01T23:41:24.618Z,99681.97
2023-05-01T23:43:51.289Z,99672.25
2023-05-01T23:46:17.985Z,99674.44
2023-05-01T23:48:44.686Z,99671.22
2023-05-01T23:51:11.388Z,99670.72
2023-05-01T23:53:37.952Z,99672.09
2023-05-01T23:56:04.690Z,99672.69
2023-05-01T23:58:31.280Z,99667.06
